Sennybridge, United Kingdom
Current Conditions -  °F | °C
As of 8:50 PM on Thursday 20 Nov 2014 (Local Time) from EGOP Reporting Station
Scattered Clouds Scattered Clouds  
Wind Chill: 39°   Ceiling: Unl
Heat Index: 43°   Visibility: 4mi
Dew Point: 41°   Wind: 7mph
Humidity: 93%   Direction: 70°ENE
Pressure: 30.21"   Gusts: NA
Location:  52.07°N, 3.62°W
Report Text: EGOP 202050Z AUTO 07006KT 7000 // SCT021/// 06/05 Q1023
Loading
Personal Weather Stations






























Interactive Weather Map New forecast layout! Learn more

10-Day Weather Forecast

Advertisements
Track Severe Weather on mobile